Terminal Aerodrome Forecast
Issued by NWS

Home | Current Version | Previous Version | Text Only | Print | Product List | Glossary On
Versions: 1 2 3 4 5 6 7 8 9 10 11 12 13 14 15
000
FTUS45 KRIW 040634 AAA
TAFRKS
TAF AMD
KRKS 040634Z 0407/0506 25012G20KT P6SM -SHRA BKN013
     FM040800 25012KT P6SM SCT013 BKN060
     FM041600 28020G30KT P6SM SCT090
     FM050200 VRB06KT P6SM FEW200=

USA.gov is the U.S. government's official web portal to all federal, state and local government web resources and services.